Time;durP1;ratioP1;P1;durP2;ratioP2;P2;SDS_P1;SDS_P2;PMS_P1;PMS_P2;Temp;Humidity;BMP_temperature;BMP_pressure;BME280_temperature;BME280_humidity;BME280_pressure;Samples;Min_cycle;Max_cycle;Signal;HPM_P1;HPM_P2
2022/10/16 00:00:41;;;;;;;3.97;3.30;;;17.30;99.90;;;;;;5040676;28;20688;-75
2022/10/16 00:03:08;;;;;;;3.53;2.87;;;17.30;99.90;;;;;;5047994;28;20206;-75
2022/10/16 00:05:41;;;;;;;3.03;2.73;;;17.30;99.90;;;;;;5047464;28;20209;-75
2022/10/16 00:08:09;;;;;;;3.57;2.53;;;17.30;99.90;;;;;;5037247;28;20181;-75
2022/10/16 00:10:35;;;;;;;3.33;3.03;;;17.30;99.90;;;;;;5048311;28;20271;-75
2022/10/16 00:13:01;;;;;;;3.93;3.00;;;17.30;99.90;;;;;;5038249;28;20234;-77
2022/10/16 00:15:26;;;;;;;4.07;2.80;;;17.30;99.90;;;;;;5048761;28;20175;-75
2022/10/16 00:17:52;;;;;;;3.23;2.73;;;17.30;99.90;;;;;;5036482;28;20273;-75
2022/10/16 00:20:18;;;;;;;4.40;2.90;;;17.30;99.90;;;;;;5047619;28;20182;-75
2022/10/16 00:23:04;;;;;;;3.20;2.90;;;17.30;99.90;;;;;;5048259;28;20217;-75
2022/10/16 00:25:32;;;;;;;2.93;2.67;;;17.30;99.90;;;;;;5035906;28;20194;-75
2022/10/16 00:27:59;;;;;;;2.60;2.40;;;17.20;99.90;;;;;;5031476;28;20763;-75
2022/10/16 00:30:27;;;;;;;4.13;3.57;;;17.30;99.90;;;;;;5044401;28;20181;-76
2022/10/16 00:32:53;;;;;;;5.30;4.53;;;17.30;99.90;;;;;;5042509;28;20684;-75
2022/10/16 00:35:19;;;;;;;5.17;4.00;;;17.30;99.90;;;;;;5039743;28;20216;-75
2022/10/16 00:37:44;;;;;;;4.97;4.27;;;17.20;99.90;;;;;;5044713;28;20559;-75
2022/10/16 00:40:10;;;;;;;4.83;4.33;;;17.20;99.90;;;;;;5037901;28;20181;-75
2022/10/16 00:42:36;;;;;;;4.37;3.97;;;17.30;99.90;;;;;;5041759;28;20236;-75
2022/10/16 00:45:03;;;;;;;6.13;3.97;;;17.30;99.90;;;;;;5046981;28;20309;-75
2022/10/16 00:47:34;;;;;;;6.00;4.00;;;17.30;99.90;;;;;;5033348;28;20265;-75
2022/10/16 00:50:28;;;;;;;4.80;3.63;;;17.30;99.90;;;;;;5042827;28;20181;-77
2022/10/16 00:52:55;;;;;;;5.90;4.17;;;17.30;99.90;;;;;;5031841;28;20275;-74
2022/10/16 00:55:21;;;;;;;6.60;4.13;;;17.30;99.90;;;;;;5042002;28;20178;-75
2022/10/16 00:57:49;;;;;;;8.47;4.53;;;17.30;99.90;;;;;;5035371;28;20196;-75
2022/10/16 01:00:19;;;;;;;5.93;3.80;;;17.40;99.90;;;;;;5042793;28;20269;-76
2022/10/16 01:02:51;;;;;;;6.00;3.57;;;17.40;99.90;;;;;;5044284;28;20297;-75
2022/10/16 01:05:17;;;;;;;4.33;3.17;;;17.40;99.90;;;;;;5042030;28;20213;-75
2022/10/16 01:08:04;;;;;;;3.93;3.07;;;17.40;99.90;;;;;;5034835;28;20197;-76
2022/10/16 01:10:33;;;;;;;3.73;3.20;;;17.40;99.90;;;;;;5031480;28;20281;-75
2022/10/16 01:13:05;;;;;;;3.30;2.50;;;17.40;99.90;;;;;;5039934;28;20236;-75
2022/10/16 01:15:42;;;;;;;3.47;2.70;;;17.40;99.90;;;;;;5047804;28;20182;-75
2022/10/16 01:18:33;;;;;;;3.50;2.77;;;17.30;99.90;;;;;;5046604;28;20261;-75
2022/10/16 01:21:27;;;;;;;3.23;2.77;;;17.30;99.90;;;;;;5037861;28;20185;-76
2022/10/16 01:24:19;;;;;;;3.37;2.67;;;17.30;99.90;;;;;;5036656;28;20202;-75
2022/10/16 01:27:09;;;;;;;2.47;2.20;;;17.40;99.90;;;;;;5028536;28;20289;-76
2022/10/16 01:29:44;;;;;;;3.50;2.20;;;17.40;99.90;;;;;;5042791;28;20201;-75
2022/10/16 01:32:30;;;;;;;3.03;2.60;;;17.40;99.90;;;;;;5060094;28;20264;-75
2022/10/16 01:35:03;;;;;;;5.87;2.27;;;17.40;99.90;;;;;;5047237;28;20257;-76
2022/10/16 01:37:47;;;;;;;3.63;2.27;;;17.40;99.90;;;;;;5034595;28;20179;-75
2022/10/16 01:40:16;;;;;;;3.57;2.10;;;17.40;99.90;;;;;;5030404;28;20175;-75
2022/10/16 01:42:48;;;;;;;3.83;2.33;;;17.40;99.90;;;;;;5039447;28;20233;-75
2022/10/16 01:45:17;;;;;;;5.20;2.20;;;17.40;99.90;;;;;;5046948;28;20263;-75
2022/10/16 01:47:44;;;;;;;2.37;2.00;;;17.40;99.90;;;;;;5044804;28;20250;-75
2022/10/16 01:50:11;;;;;;;3.57;1.97;;;17.40;99.90;;;;;;5047060;28;20197;-75
2022/10/16 01:52:41;;;;;;;3.90;1.97;;;17.30;99.90;;;;;;5046807;28;20198;-75
2022/10/16 01:55:10;;;;;;;3.43;1.90;;;17.30;99.90;;;;;;5045541;28;20176;-75
2022/10/16 01:57:39;;;;;;;2.50;2.10;;;17.30;99.90;;;;;;5046024;28;20186;-75
2022/10/16 02:00:10;;;;;;;5.30;2.30;;;17.30;99.90;;;;;;5036985;28;20327;-75
2022/10/16 02:02:43;;;;;;;3.23;2.03;;;17.30;99.90;;;;;;5035442;28;20255;-76
2022/10/16 02:05:46;;;;;;;3.10;2.30;;;17.30;99.90;;;;;;5050262;28;20561;-75
2022/10/16 02:08:13;;;;;;;3.33;2.70;;;17.30;99.90;;;;;;5039084;28;20649;-75
2022/10/16 02:10:39;;;;;;;3.73;2.00;;;17.20;99.90;;;;;;5045148;28;20177;-75
2022/10/16 02:13:21;;;;;;;3.00;2.03;;;17.30;99.90;;;;;;5048615;28;20288;-75
2022/10/16 02:15:47;;;;;;;3.33;2.30;;;17.20;99.90;;;;;;5041542;28;20211;-75
2022/10/16 02:18:14;;;;;;;4.27;2.10;;;17.20;99.90;;;;;;5050372;28;20228;-75
2022/10/16 02:20:54;;;;;;;3.87;2.20;;;17.20;99.90;;;;;;5046716;28;20186;-75
2022/10/16 02:23:29;;;;;;;3.83;2.10;;;17.20;99.90;;;;;;5035599;28;20261;-75
2022/10/16 02:26:01;;;;;;;2.30;2.10;;;17.30;99.90;;;;;;5032782;28;20207;-75
2022/10/16 02:28:41;;;;;;;3.27;2.10;;;17.30;99.90;;;;;;5038359;28;20181;-75
2022/10/16 02:31:11;;;;;;;2.37;1.90;;;17.30;99.90;;;;;;5042703;28;20182;-76
2022/10/16 02:33:39;;;;;;;2.30;2.10;;;17.20;99.90;;;;;;5034695;28;20607;-75
2022/10/16 02:36:05;;;;;;;4.03;2.10;;;17.20;99.90;;;;;;5049776;28;20707;-75
2022/10/16 02:38:32;;;;;;;2.63;1.90;;;17.20;99.90;;;;;;5042337;28;20188;-75
2022/10/16 02:40:58;;;;;;;4.50;1.70;;;17.20;99.90;;;;;;5048534;28;20185;-75
2022/10/16 02:43:25;;;;;;;4.10;1.90;;;17.20;99.90;;;;;;5044170;28;20568;-75
2022/10/16 02:45:51;;;;;;;5.47;2.20;;;17.20;99.90;;;;;;5048976;28;20256;-75
2022/10/16 02:48:17;;;;;;;3.20;1.80;;;17.30;99.90;;;;;;5041351;28;20182;-75
2022/10/16 02:50:43;;;;;;;3.07;1.80;;;17.20;99.90;;;;;;5050210;28;20178;-75
2022/10/16 02:53:08;;;;;;;3.30;1.70;;;17.20;99.90;;;;;;5050187;28;20194;-75
2022/10/16 02:55:34;;;;;;;2.27;1.70;;;17.20;99.90;;;;;;5050195;28;20190;-75
2022/10/16 02:58:00;;;;;;;4.10;2.00;;;17.30;99.90;;;;;;5050165;28;20197;-75
2022/10/16 03:00:25;;;;;;;1.93;1.83;;;17.30;99.90;;;;;;5049860;28;20217;-75
2022/10/16 03:02:51;;;;;;;2.07;1.90;;;17.30;99.90;;;;;;5042311;28;20206;-75
2022/10/16 03:05:17;;;;;;;2.10;1.80;;;17.30;99.90;;;;;;5049469;28;20262;-75
2022/10/16 03:07:43;;;;;;;3.00;2.30;;;17.30;99.90;;;;;;5033100;28;20561;-75
2022/10/16 03:10:09;;;;;;;2.33;1.80;;;17.30;99.90;;;;;;5049660;28;20185;-75
2022/10/16 03:12:35;;;;;;;2.23;1.90;;;17.30;99.90;;;;;;5038393;28;20201;-75
2022/10/16 03:15:00;;;;;;;2.27;1.93;;;17.30;99.90;;;;;;5042551;28;20565;-76
2022/10/16 03:17:26;;;;;;;2.40;1.90;;;17.30;99.90;;;;;;5045604;28;20184;-75
2022/10/16 03:19:52;;;;;;;2.67;2.10;;;17.30;99.90;;;;;;5051443;28;20264;-75
2022/10/16 03:22:18;;;;;;;2.10;1.90;;;17.30;99.90;;;;;;5044192;28;20178;-75
2022/10/16 03:24:43;;;;;;;2.47;2.00;;;17.20;99.90;;;;;;5049456;28;20646;-75
2022/10/16 03:27:09;;;;;;;3.27;2.17;;;17.30;99.90;;;;;;5049534;28;20194;-76
2022/10/16 03:29:35;;;;;;;2.70;2.30;;;17.20;99.90;;;;;;5049228;28;20193;-75
2022/10/16 03:32:02;;;;;;;2.17;1.97;;;17.30;99.90;;;;;;5048793;28;20166;-75
2022/10/16 03:34:27;;;;;;;2.23;2.03;;;17.30;99.90;;;;;;5049525;28;20612;-75
2022/10/16 03:36:54;;;;;;;2.20;2.00;;;17.30;99.90;;;;;;5048488;28;20328;-76
2022/10/16 03:39:19;;;;;;;2.00;1.80;;;17.30;99.90;;;;;;5049190;28;20184;-76
2022/10/16 03:41:46;;;;;;;2.87;2.10;;;17.30;99.90;;;;;;5040007;28;20260;-75
2022/10/16 03:44:12;;;;;;;3.10;1.93;;;17.30;99.90;;;;;;5047075;28;20205;-75
2022/10/16 03:46:38;;;;;;;6.30;2.23;;;17.30;99.90;;;;;;5043231;28;20300;-75
2022/10/16 03:49:04;;;;;;;4.10;1.93;;;17.30;99.90;;;;;;5041246;28;20280;-76
2022/10/16 03:51:30;;;;;;;3.03;2.00;;;17.30;99.90;;;;;;5041736;28;20166;-75
2022/10/16 03:53:56;;;;;;;2.63;2.30;;;17.30;99.90;;;;;;5039118;28;20194;-75
2022/10/16 03:56:21;;;;;;;4.23;1.90;;;17.30;99.90;;;;;;5049214;28;20178;-75
2022/10/16 03:58:47;;;;;;;3.53;2.20;;;17.20;99.90;;;;;;5049215;28;20178;-75
2022/10/16 04:01:13;;;;;;;2.23;2.03;;;17.20;99.90;;;;;;5047978;28;20174;-75
2022/10/16 04:03:38;;;;;;;2.50;1.97;;;17.20;99.90;;;;;;5048857;28;20576;-75
2022/10/16 04:06:04;;;;;;;2.33;2.13;;;17.20;99.90;;;;;;5048452;28;20236;-77
2022/10/16 04:08:30;;;;;;;3.77;2.20;;;17.20;99.90;;;;;;5046837;28;20176;-75
2022/10/16 04:10:56;;;;;;;4.60;2.47;;;17.20;99.90;;;;;;5041680;28;20213;-75
2022/10/16 04:13:22;;;;;;;3.10;2.10;;;17.20;99.90;;;;;;5040350;28;20194;-75
2022/10/16 04:15:47;;;;;;;2.57;2.30;;;17.20;99.90;;;;;;5028886;28;20169;-74
2022/10/16 04:18:13;;;;;;;5.37;2.20;;;17.20;99.90;;;;;;5028870;28;20188;-75
2022/10/16 04:20:39;;;;;;;3.83;2.23;;;17.20;99.90;;;;;;5044463;28;20679;-75
2022/10/16 04:23:05;;;;;;;3.10;2.70;;;17.20;99.90;;;;;;5048744;28;20246;-75
2022/10/16 04:25:30;;;;;;;2.37;2.17;;;17.20;99.90;;;;;;5039977;28;20210;-75
2022/10/16 04:27:56;;;;;;;2.80;2.10;;;17.20;99.90;;;;;;5046328;28;20305;-75
2022/10/16 04:30:23;;;;;;;4.43;2.47;;;17.20;99.90;;;;;;5037457;28;20187;-75
2022/10/16 04:32:50;;;;;;;3.80;2.70;;;17.20;99.90;;;;;;5028621;28;20895;-75
2022/10/16 04:35:17;;;;;;;2.80;2.40;;;17.20;99.90;;;;;;5038357;28;20260;-75
2022/10/16 04:37:42;;;;;;;3.30;2.67;;;17.20;99.90;;;;;;5034862;28;20219;-74
2022/10/16 04:40:09;;;;;;;5.07;2.70;;;17.20;99.90;;;;;;5041949;28;20658;-75
2022/10/16 04:42:34;;;;;;;4.17;2.60;;;17.20;99.90;;;;;;5048150;28;20205;-75
2022/10/16 04:45:00;;;;;;;2.63;2.10;;;17.20;99.90;;;;;;5031107;28;20895;-75
2022/10/16 04:47:26;;;;;;;2.47;2.20;;;17.20;99.90;;;;;;5038407;28;20205;-75
2022/10/16 04:49:52;;;;;;;3.87;2.70;;;17.10;99.90;;;;;;5039866;28;20177;-77
2022/10/16 04:52:18;;;;;;;3.63;2.50;;;17.10;99.90;;;;;;5048050;28;20662;-75
2022/10/16 04:54:45;;;;;;;3.00;2.70;;;17.10;99.90;;;;;;5048586;28;20183;-75
2022/10/16 04:57:11;;;;;;;4.20;3.27;;;17.10;99.90;;;;;;5048193;28;20182;-75
2022/10/16 04:59:37;;;;;;;3.40;2.90;;;17.10;99.90;;;;;;5042793;28;20650;-75
2022/10/16 05:02:03;;;;;;;5.27;3.20;;;17.10;99.90;;;;;;5044575;28;20182;-75
2022/10/16 05:04:28;;;;;;;3.10;2.70;;;17.10;99.90;;;;;;5040478;28;20574;-76
2022/10/16 05:06:54;;;;;;;3.30;2.17;;;17.10;99.90;;;;;;5047548;28;20220;-75
2022/10/16 05:09:20;;;;;;;2.57;2.30;;;17.10;99.90;;;;;;5047655;28;20173;-75
2022/10/16 05:11:46;;;;;;;2.77;2.03;;;17.10;99.90;;;;;;5038813;28;20181;-76
2022/10/16 05:14:12;;;;;;;2.43;2.20;;;17.10;99.90;;;;;;5043010;28;20202;-75
2022/10/16 05:16:37;;;;;;;2.40;2.20;;;17.10;99.90;;;;;;5032246;28;20244;-75
2022/10/16 05:19:03;;;;;;;3.70;2.30;;;17.10;99.90;;;;;;5040312;28;20185;-75
2022/10/16 05:21:29;;;;;;;4.50;2.00;;;17.10;99.90;;;;;;5047868;28;20181;-75
2022/10/16 05:23:55;;;;;;;2.87;2.40;;;17.10;99.90;;;;;;5048082;28;20883;-75
2022/10/16 05:26:21;;;;;;;4.50;1.97;;;17.10;99.90;;;;;;5042429;28;20238;-75
2022/10/16 05:28:48;;;;;;;2.20;2.00;;;17.20;99.90;;;;;;5044394;28;20616;-75
2022/10/16 05:31:14;;;;;;;2.40;2.10;;;17.10;99.90;;;;;;5047790;28;20898;-75
2022/10/16 05:33:40;;;;;;;2.23;2.03;;;17.10;99.90;;;;;;5046065;28;20202;-75
2022/10/16 05:36:08;;;;;;;3.90;2.13;;;17.10;99.90;;;;;;5030521;28;20182;-75
2022/10/16 05:38:35;;;;;;;2.23;2.03;;;17.20;99.90;;;;;;5051239;28;20189;-75
2022/10/16 05:41:01;;;;;;;2.30;2.10;;;17.20;99.90;;;;;;5035206;28;20182;-75
2022/10/16 05:43:28;;;;;;;3.40;2.30;;;17.20;99.90;;;;;;5051358;28;20205;-75
2022/10/16 05:45:56;;;;;;;3.03;2.20;;;17.20;99.90;;;;;;5051533;28;20308;-76
2022/10/16 05:48:22;;;;;;;2.63;2.43;;;17.20;99.90;;;;;;5050943;28;20276;-75
2022/10/16 05:50:48;;;;;;;2.40;2.05;;;17.20;99.90;;;;;;5042771;28;20455;-77
2022/10/16 05:53:14;;;;;;;2.27;2.07;;;17.20;99.90;;;;;;5033434;28;20203;-76
2022/10/16 05:55:39;;;;;;;2.60;2.20;;;17.30;99.90;;;;;;5042466;28;20525;-75
2022/10/16 05:58:05;;;;;;;2.87;1.70;;;17.30;99.90;;;;;;5050737;28;20178;-75
2022/10/16 06:00:31;;;;;;;3.20;2.00;;;17.30;99.90;;;;;;5050681;28;20958;-75
2022/10/16 06:02:56;;;;;;;2.97;1.87;;;17.30;99.90;;;;;;5051361;28;20208;-75
2022/10/16 06:05:22;;;;;;;2.30;2.10;;;17.30;99.90;;;;;;5046558;28;20697;-76
2022/10/16 06:07:48;;;;;;;2.77;2.03;;;17.30;99.90;;;;;;5040016;28;20177;-75
2022/10/16 06:10:14;;;;;;;2.67;2.20;;;17.30;99.90;;;;;;5049563;28;20178;-75
2022/10/16 06:12:39;;;;;;;3.90;2.47;;;17.30;99.90;;;;;;5051393;28;20348;-75
2022/10/16 06:15:05;;;;;;;2.33;2.10;;;17.30;99.90;;;;;;5051482;28;20174;-75
2022/10/16 06:17:31;;;;;;;3.33;2.30;;;17.30;99.90;;;;;;5051070;28;20166;-75
2022/10/16 06:19:57;;;;;;;3.13;2.40;;;17.30;99.90;;;;;;5051210;28;20704;-76
2022/10/16 06:22:22;;;;;;;2.17;1.93;;;17.30;99.90;;;;;;5047806;28;20653;-75
2022/10/16 06:24:49;;;;;;;4.20;2.30;;;17.20;99.90;;;;;;5044864;28;20221;-76
2022/10/16 06:27:15;;;;;;;2.33;2.13;;;17.30;99.90;;;;;;5030964;28;20269;-77
2022/10/16 06:29:42;;;;;;;2.00;1.90;;;17.30;99.90;;;;;;5031294;28;20253;-74
2022/10/16 06:32:09;;;;;;;3.00;1.90;;;17.30;99.90;;;;;;5030888;28;20321;-75
2022/10/16 06:34:35;;;;;;;2.93;2.27;;;17.30;99.90;;;;;;5031169;28;20201;-75
2022/10/16 06:37:01;;;;;;;2.53;2.20;;;17.30;99.90;;;;;;5039992;28;20693;-75
2022/10/16 06:39:26;;;;;;;3.93;2.40;;;17.30;99.90;;;;;;5043223;28;20229;-75
2022/10/16 06:41:52;;;;;;;4.53;1.90;;;17.30;99.90;;;;;;5030728;28;20289;-75
2022/10/16 06:44:18;;;;;;;2.20;2.00;;;17.30;99.90;;;;;;5030981;28;20205;-75
2022/10/16 06:46:43;;;;;;;3.53;2.10;;;17.40;99.90;;;;;;5029220;28;20238;-76
2022/10/16 06:49:09;;;;;;;3.30;2.00;;;17.40;99.90;;;;;;5030403;28;20205;-75
2022/10/16 06:51:36;;;;;;;4.87;2.20;;;17.40;99.90;;;;;;5040410;28;20209;-75
2022/10/16 06:54:03;;;;;;;3.17;2.30;;;17.40;99.90;;;;;;5039595;28;20289;-75
2022/10/16 06:56:30;;;;;;;3.97;2.70;;;17.40;99.90;;;;;;5044185;28;20178;-75
2022/10/16 06:58:56;;;;;;;3.43;3.10;;;17.40;99.90;;;;;;5039872;28;20181;-76
2022/10/16 07:01:23;;;;;;;3.67;3.00;;;17.50;99.90;;;;;;5049366;28;20178;-74
2022/10/16 07:03:50;;;;;;;3.40;3.00;;;17.50;99.90;;;;;;5050078;28;20308;-75
2022/10/16 07:06:18;;;;;;;6.27;3.40;;;17.60;99.90;;;;;;5044470;28;20214;-75
2022/10/16 07:08:46;;;;;;;4.47;3.00;;;17.60;99.90;;;;;;5030593;28;20190;-75
2022/10/16 07:11:23;;;;;;;5.47;3.07;;;17.60;99.90;;;;;;5038672;28;20170;-75
2022/10/16 07:13:49;;;;;;;3.73;3.20;;;17.60;99.90;;;;;;5049827;28;20255;-76
2022/10/16 07:16:18;;;;;;;4.33;2.80;;;17.70;99.90;;;;;;5046640;28;20729;-75
2022/10/16 07:18:45;;;;;;;4.50;2.87;;;17.70;99.90;;;;;;5043393;28;20743;-75
2022/10/16 07:21:14;;;;;;;5.37;3.13;;;17.70;99.90;;;;;;5044160;28;20182;-75
2022/10/16 07:23:41;;;;;;;6.90;3.43;;;17.70;99.90;;;;;;5041766;28;20232;-75
2022/10/16 07:26:07;;;;;;;3.37;3.07;;;17.80;99.90;;;;;;5046994;28;20190;-75
2022/10/16 07:28:34;;;;;;;6.63;3.67;;;17.80;99.90;;;;;;5046977;28;20178;-75
2022/10/16 07:31:05;;;;;;;4.50;3.23;;;17.80;99.90;;;;;;5049965;28;20269;-75
2022/10/16 07:33:33;;;;;;;4.13;3.10;;;17.90;99.90;;;;;;5049917;28;20854;-75
2022/10/16 07:35:58;;;;;;;4.80;3.20;;;18.00;99.90;;;;;;5049753;28;20545;-75
2022/10/16 07:38:24;;;;;;;4.30;2.77;;;18.10;99.90;;;;;;5045924;28;20174;-76
2022/10/16 07:41:04;;;;;;;5.27;2.50;;;18.20;99.90;;;;;;5031641;28;20185;-75
2022/10/16 07:43:31;;;;;;;2.53;2.30;;;18.20;99.90;;;;;;5048838;28;20339;-76
2022/10/16 07:45:57;;;;;;;2.63;1.93;;;18.30;99.90;;;;;;5044314;28;20202;-75
2022/10/16 07:48:24;;;;;;;3.77;1.80;;;18.30;99.90;;;;;;5029583;28;20241;-75
2022/10/16 07:50:49;;;;;;;2.30;2.10;;;18.30;99.90;;;;;;5029528;28;20174;-75
2022/10/16 07:53:15;;;;;;;2.47;1.90;;;18.30;99.90;;;;;;5041433;28;20224;-75
2022/10/16 07:55:41;;;;;;;2.67;2.33;;;18.30;99.90;;;;;;5049500;28;20311;-75
2022/10/16 07:58:07;;;;;;;4.53;3.60;;;18.30;99.90;;;;;;5039456;28;20213;-75
2022/10/16 08:00:34;;;;;;;4.90;3.30;;;18.30;99.90;;;;;;5042963;28;20194;-75
2022/10/16 08:03:00;;;;;;;3.10;2.33;;;18.30;99.90;;;;;;5048970;28;20206;-75
2022/10/16 08:05:27;;;;;;;2.63;2.07;;;18.40;99.90;;;;;;5038870;28;20241;-75
2022/10/16 08:07:53;;;;;;;4.80;2.00;;;18.40;99.90;;;;;;5044630;28;20174;-75
2022/10/16 08:10:21;;;;;;;4.67;2.00;;;18.40;99.90;;;;;;5048351;28;20914;-75
2022/10/16 08:12:46;;;;;;;3.63;2.00;;;18.50;99.90;;;;;;5038307;28;20220;-76
2022/10/16 08:15:12;;;;;;;2.70;2.00;;;18.50;99.90;;;;;;5048719;28;20182;-75
2022/10/16 08:17:38;;;;;;;2.30;2.10;;;18.50;99.90;;;;;;5048797;28;20182;-74
2022/10/16 08:20:05;;;;;;;4.97;2.30;;;18.50;99.90;;;;;;5048390;28;20255;-76
2022/10/16 08:22:31;;;;;;;3.07;2.40;;;18.40;99.90;;;;;;5045925;28;20194;-76
2022/10/16 08:24:57;;;;;;;3.97;2.07;;;18.40;99.90;;;;;;5044985;28;20264;-75
2022/10/16 08:27:22;;;;;;;3.93;2.60;;;18.40;99.90;;;;;;5044891;28;20290;-75
2022/10/16 08:29:49;;;;;;;4.10;2.40;;;18.40;99.90;;;;;;5043568;28;20187;-75
2022/10/16 08:32:15;;;;;;;4.30;2.20;;;18.30;99.90;;;;;;5048449;28;20176;-75
2022/10/16 08:34:41;;;;;;;4.10;2.17;;;18.30;99.90;;;;;;5046371;28;20243;-75
2022/10/16 08:37:07;;;;;;;3.90;2.00;;;18.30;99.90;;;;;;5036701;28;20190;-76
2022/10/16 08:39:33;;;;;;;4.00;2.33;;;18.20;99.90;;;;;;5039354;28;20213;-75
2022/10/16 08:42:23;;;;;;;5.00;2.20;;;18.20;99.90;;;;;;5047457;28;20208;-76
2022/10/16 08:45:23;;;;;;;3.50;2.23;;;18.20;99.90;;;;;;5048698;28;20865;-75
2022/10/16 08:48:19;;;;;;;4.43;2.70;;;18.20;99.90;;;;;;5046157;28;20710;-74
2022/10/16 08:50:47;;;;;;;3.60;2.30;;;18.20;99.90;;;;;;5029444;28;20178;-76
2022/10/16 08:53:23;;;;;;;6.67;2.37;;;18.10;99.90;;;;;;5037263;28;20210;-76
2022/10/16 08:55:53;;;;;;;3.10;2.13;;;18.10;99.90;;;;;;5039401;28;20211;-76
2022/10/16 08:58:22;;;;;;;5.53;2.63;;;18.00;99.90;;;;;;5045262;28;20298;-75
2022/10/16 09:00:52;;;;;;;5.80;2.90;;;18.00;99.90;;;;;;5036105;28;20277;-75
2022/10/16 09:03:32;;;;;;;5.20;3.33;;;18.00;99.90;;;;;;5045793;28;20206;-78
2022/10/16 09:06:23;;;;;;;5.90;3.30;;;17.90;99.90;;;;;;5029047;28;20654;-76
2022/10/16 09:09:09;;;;;;;5.87;3.90;;;17.80;99.90;;;;;;5033086;28;20217;-77
2022/10/16 09:11:52;;;;;;;5.97;3.67;;;17.80;99.90;;;;;;5034894;28;20178;-77
2022/10/16 09:14:45;;;;;;;6.77;3.47;;;17.80;99.90;;;;;;5027920;28;20195;-76
2022/10/16 09:17:32;;;;;;;4.70;3.73;;;17.80;99.90;;;;;;5030616;28;20186;-76
2022/10/16 09:20:25;;;;;;;6.10;4.17;;;17.80;99.90;;;;;;5040610;28;20181;-76
2022/10/16 09:23:14;;;;;;;3.43;2.57;;;17.80;99.90;;;;;;5038939;28;20305;-76
2022/10/16 09:25:44;;;;;;;3.90;2.70;;;17.90;99.90;;;;;;5039290;28;20209;-76
2022/10/16 09:28:10;;;;;;;4.60;2.63;;;17.90;99.90;;;;;;5037194;28;20179;-76
2022/10/16 09:30:37;;;;;;;5.13;2.57;;;17.90;99.90;;;;;;5035050;28;20181;-76
2022/10/16 09:33:03;;;;;;;4.80;2.37;;;18.00;99.90;;;;;;5046883;28;20226;-76
2022/10/16 09:35:39;;;;;;;2.87;2.30;;;18.20;99.90;;;;;;5044999;28;20181;-77
2022/10/16 09:38:05;;;;;;;4.73;2.77;;;18.40;99.90;;;;;;5045521;28;20190;-76
2022/10/16 09:40:35;;;;;;;5.07;3.40;;;18.60;99.90;;;;;;5034829;28;20174;-76
2022/10/16 09:43:28;;;;;;;3.57;2.70;;;18.90;99.90;;;;;;5029801;28;20210;-76
2022/10/16 09:46:06;;;;;;;3.93;2.60;;;19.10;99.90;;;;;;5034549;28;20210;-76
2022/10/16 09:48:44;;;;;;;4.13;3.30;;;19.20;99.90;;;;;;5038293;28;20240;-76
2022/10/16 09:51:23;;;;;;;3.17;2.60;;;19.30;99.90;;;;;;5036029;28;20192;-76
2022/10/16 09:53:54;;;;;;;3.87;2.30;;;19.40;99.90;;;;;;5044402;28;20205;-76
2022/10/16 09:56:28;;;;;;;2.70;2.10;;;19.50;99.90;;;;;;5045778;28;20240;-76
2022/10/16 09:58:57;;;;;;;1.60;1.40;;;19.50;99.90;;;;;;5030561;28;20181;-77
2022/10/16 10:01:47;;;;;;;2.10;2.00;;;19.50;99.90;;;;;;5045123;28;20182;-76
2022/10/16 10:04:14;;;;;;;1.80;1.70;;;19.40;99.90;;;;;;5042250;28;20198;-76
2022/10/16 10:06:54;;;;;;;1.60;1.50;;;19.40;99.90;;;;;;5035951;28;20275;-76
2022/10/16 10:09:21;;;;;;;4.00;2.07;;;19.30;99.90;;;;;;5043250;28;20304;-76
2022/10/16 10:11:56;;;;;;;3.77;1.70;;;19.30;99.90;;;;;;5039085;28;20186;-77
2022/10/16 10:14:28;;;;;;;2.20;2.00;;;19.30;99.90;;;;;;5036126;28;20285;-76
2022/10/16 10:17:19;;;;;;;2.10;1.90;;;19.30;99.90;;;;;;5038920;28;20228;-76
2022/10/16 10:19:57;;;;;;;2.83;2.03;;;19.40;99.90;;;;;;5042202;28;20199;-76
2022/10/16 10:22:39;;;;;;;1.90;1.70;;;19.40;99.90;;;;;;5043707;28;20571;-77
2022/10/16 10:25:14;;;;;;;2.67;2.07;;;19.50;99.90;;;;;;5047507;28;20189;-75
2022/10/16 10:28:20;;;;;;;1.80;1.70;;;19.50;99.90;;;;;;5046701;28;20219;-76
2022/10/16 10:31:12;;;;;;;2.10;1.90;;;19.60;99.90;;;;;;5013833;28;20721;-75
2022/10/16 10:34:04;;;;;;;2.30;2.10;;;19.70;99.90;;;;;;5032011;28;20995;-76
2022/10/16 10:36:38;;;;;;;2.23;1.90;;;19.90;99.90;;;;;;5045916;28;20182;-76
2022/10/16 10:39:27;;;;;;;2.97;1.80;;;20.20;99.90;;;;;;5032884;28;20253;-76
2022/10/16 10:41:59;;;;;;;2.33;2.10;;;20.30;99.90;;;;;;5029342;28;20174;-75
2022/10/16 10:44:55;;;;;;;2.13;1.93;;;20.40;99.90;;;;;;5039628;28;20209;-76
2022/10/16 10:47:31;;;;;;;4.83;3.07;;;20.40;99.90;;;;;;5040975;28;20673;-75
2022/10/16 10:50:19;;;;;;;3.13;2.17;;;20.40;99.90;;;;;;5036253;28;20174;-75
2022/10/16 10:52:59;;;;;;;2.13;1.93;;;20.20;99.90;;;;;;5042557;28;20622;-75
2022/10/16 10:55:43;;;;;;;2.40;2.03;;;20.10;99.90;;;;;;5040322;28;20188;-76
2022/10/16 10:58:40;;;;;;;4.07;2.33;;;20.10;99.90;;;;;;5040625;28;20171;-75
2022/10/16 11:01:11;;;;;;;5.07;2.03;;;20.10;99.90;;;;;;5039681;28;20238;-76
2022/10/16 11:03:58;;;;;;;2.67;2.40;;;20.00;99.90;;;;;;5045697;28;20799;-75
2022/10/16 11:06:44;;;;;;;5.03;2.30;;;20.00;99.90;;;;;;5037009;28;20681;-74
2022/10/16 11:09:17;;;;;;;3.87;2.17;;;20.10;99.90;;;;;;5039738;28;20395;-75
2022/10/16 11:11:52;;;;;;;2.57;2.03;;;20.10;99.90;;;;;;5045431;28;20173;-75
2022/10/16 11:14:31;;;;;;;3.13;2.40;;;20.20;99.90;;;;;;5030908;28;20194;-75
2022/10/16 11:17:19;;;;;;;5.67;2.93;;;20.30;99.90;;;;;;5038732;28;20637;-74
2022/10/16 11:20:08;;;;;;;2.93;2.00;;;20.40;99.90;;;;;;5035041;28;20729;-75
2022/10/16 11:22:38;;;;;;;4.07;2.30;;;20.50;99.90;;;;;;5036979;28;20206;-75
2022/10/16 11:25:30;;;;;;;4.87;2.07;;;20.60;99.90;;;;;;5048195;28;20181;-74
2022/10/16 11:28:05;;;;;;;3.37;1.93;;;20.70;99.90;;;;;;5032257;28;20942;-74
2022/10/16 11:30:41;;;;;;;2.93;2.10;;;20.80;99.90;;;;;;5049533;28;20181;-77
2022/10/16 11:33:31;;;;;;;3.03;1.83;;;21.00;99.90;;;;;;5046422;28;20313;-74
2022/10/16 11:36:05;;;;;;;3.40;2.10;;;21.30;99.90;;;;;;5041409;28;20181;-74
2022/10/16 11:38:49;;;;;;;1.93;1.73;;;21.40;99.90;;;;;;5047833;28;20227;-74
2022/10/16 11:41:27;;;;;;;3.47;2.00;;;21.60;99.90;;;;;;5049196;28;20995;-74
2022/10/16 11:44:17;;;;;;;3.43;1.80;;;21.80;99.90;;;;;;5046460;28;20243;-74
2022/10/16 11:46:51;;;;;;;2.40;1.80;;;22.00;99.90;;;;;;5040767;28;20210;-74
2022/10/16 11:49:23;;;;;;;4.33;1.90;;;22.30;99.90;;;;;;5039949;28;20624;-74
2022/10/16 11:52:13;;;;;;;2.87;1.90;;;22.60;99.90;;;;;;5037460;28;20623;-75
2022/10/16 11:54:45;;;;;;;2.80;1.90;;;23.00;99.90;;;;;;5048673;28;20528;-76
2022/10/16 11:57:28;;;;;;;3.47;2.20;;;23.40;99.90;;;;;;5044004;28;20252;-74
2022/10/16 12:00:05;;;;;;;4.43;2.00;;;23.80;99.90;;;;;;5040446;28;20181;-76
2022/10/16 12:02:59;;;;;;;4.67;2.00;;;24.50;99.90;;;;;;5042840;28;20208;-74
2022/10/16 12:05:52;;;;;;;2.10;1.90;;;24.70;99.90;;;;;;5048398;28;20248;-74
2022/10/16 12:08:18;;;;;;;2.30;2.10;;;24.40;98.30;;;;;;5045960;28;20224;-74
2022/10/16 12:10:46;;;;;;;4.47;2.10;;;24.20;99.90;;;;;;5039727;28;20182;-75
2022/10/16 12:13:31;;;;;;;2.37;1.90;;;24.10;99.90;;;;;;5040668;28;20255;-71
2022/10/16 12:16:12;;;;;;;2.57;1.80;;;24.00;99.90;;;;;;5034786;28;20889;-75
2022/10/16 12:18:40;;;;;;;4.60;2.20;;;24.10;99.90;;;;;;5042014;28;20294;-74
2022/10/16 12:21:07;;;;;;;2.43;1.60;;;24.00;99.90;;;;;;5040857;28;20194;-74
2022/10/16 12:23:48;;;;;;;5.67;2.00;;;23.70;99.90;;;;;;5042099;28;20202;-74
2022/10/16 12:26:14;;;;;;;2.07;1.60;;;23.40;99.90;;;;;;5047832;28;20605;-76
2022/10/16 12:29:29;;;;;;;4.27;2.00;;;23.10;99.90;;;;;;5044022;28;20178;-73
2022/10/16 12:31:56;;;;;;;4.03;2.20;;;22.90;99.90;;;;;;5037563;28;20184;-75
2022/10/16 12:34:29;;;;;;;2.23;1.97;;;22.90;99.90;;;;;;5043582;28;20659;-77
2022/10/16 12:37:07;;;;;;;2.47;2.27;;;22.80;99.90;;;;;;5042416;28;20178;-76
2022/10/16 12:39:32;;;;;;;3.30;1.80;;;22.70;99.90;;;;;;5034787;28;20261;-78
2022/10/16 12:42:05;;;;;;;2.23;2.00;;;22.60;99.90;;;;;;5041625;28;20265;-75
2022/10/16 12:44:35;;;;;;;2.10;1.90;;;22.60;99.90;;;;;;5038874;28;20199;-75
2022/10/16 12:47:02;;;;;;;3.47;2.00;;;22.60;99.90;;;;;;5036726;28;20619;-78
2022/10/16 12:49:28;;;;;;;2.37;1.90;;;22.60;99.90;;;;;;5043746;28;20786;-75
2022/10/16 12:51:54;;;;;;;2.33;2.03;;;22.60;99.90;;;;;;5043738;28;20190;-76
2022/10/16 12:54:38;;;;;;;3.07;2.07;;;22.60;99.90;;;;;;5042445;28;20936;-76
2022/10/16 12:57:25;;;;;;;2.23;1.90;;;22.60;99.90;;;;;;5036704;28;20523;-76
2022/10/16 13:00:13;;;;;;;2.33;1.80;;;22.70;99.90;;;;;;5035583;28;20194;-75
2022/10/16 13:02:56;;;;;;;2.17;1.90;;;23.50;99.90;;;;;;5031377;28;20203;-76
2022/10/16 13:05:47;;;;;;;2.90;1.80;;;23.80;99.90;;;;;;5037606;28;20198;-75
2022/10/16 13:08:45;;;;;;;2.37;1.83;;;23.90;99.90;;;;;;5038975;28;20184;-76
2022/10/16 13:11:25;;;;;;;4.93;1.93;;;24.10;99.10;;;;;;5038900;28;20194;-77